Time;durP1;ratioP1;P1;durP2;ratioP2;P2;SDS_P1;SDS_P2;PMS_P1;PMS_P2;Temp;Humidity;BMP_temperature;BMP_pressure;BME280_temperature;BME280_humidity;BME280_pressure;Samples;Min_cycle;Max_cycle;Signal;HPM_P1;HPM_P2
2021/12/26 00:00:23;;;;;;;22.63;20.80;;;5.70;99.90;;;;;;5058231;28;20202;-75
2021/12/26 00:02:51;;;;;;;22.53;20.47;;;5.70;99.90;;;;;;5070261;28;21222;-75
2021/12/26 00:05:20;;;;;;;22.40;20.60;;;5.70;99.90;;;;;;5057043;28;20203;-75
2021/12/26 00:07:47;;;;;;;22.30;20.37;;;5.70;99.90;;;;;;5067095;28;20209;-75
2021/12/26 00:10:16;;;;;;;23.17;21.20;;;5.60;99.90;;;;;;5063349;28;20300;-75
2021/12/26 00:12:43;;;;;;;22.23;20.27;;;5.70;99.90;;;;;;5061117;28;20229;-76
2021/12/26 00:15:10;;;;;;;23.13;20.93;;;5.70;99.90;;;;;;5064926;28;20198;-75
2021/12/26 00:17:37;;;;;;;21.70;19.90;;;5.60;99.90;;;;;;5059903;28;20202;-75
2021/12/26 00:20:09;;;;;;;21.10;19.30;;;5.60;99.90;;;;;;5065673;28;20199;-75
2021/12/26 00:22:36;;;;;;;20.93;19.17;;;5.60;99.90;;;;;;5057762;28;20187;-75
2021/12/26 00:25:04;;;;;;;22.27;20.30;;;5.60;99.90;;;;;;5061171;28;20199;-75
2021/12/26 00:27:31;;;;;;;21.93;20.13;;;5.60;99.90;;;;;;5062292;28;20195;-75
2021/12/26 00:29:58;;;;;;;21.83;19.90;;;5.60;99.90;;;;;;5059545;28;20199;-75
2021/12/26 00:32:25;;;;;;;21.00;19.23;;;5.60;99.90;;;;;;5062615;28;20215;-75
2021/12/26 00:34:52;;;;;;;20.87;18.83;;;5.50;99.90;;;;;;5053973;28;20223;-75
2021/12/26 00:37:21;;;;;;;20.37;18.77;;;5.50;99.90;;;;;;5064631;28;20660;-75
2021/12/26 00:39:48;;;;;;;20.23;18.63;;;5.50;99.90;;;;;;5052511;28;20208;-75
2021/12/26 00:42:15;;;;;;;20.83;19.03;;;5.50;99.90;;;;;;5059169;28;20211;-75
2021/12/26 00:44:42;;;;;;;20.30;18.60;;;5.50;99.90;;;;;;5058753;28;20217;-75
2021/12/26 00:47:12;;;;;;;19.97;18.37;;;5.40;99.90;;;;;;5061200;28;20200;-75
2021/12/26 00:49:39;;;;;;;20.30;18.70;;;5.40;99.90;;;;;;5062136;28;20187;-75
2021/12/26 00:52:08;;;;;;;20.87;18.97;;;5.40;99.90;;;;;;5063535;28;20214;-75
2021/12/26 00:54:36;;;;;;;22.90;20.30;;;5.40;99.90;;;;;;5053713;28;20219;-75
2021/12/26 00:57:05;;;;;;;21.07;19.30;;;5.40;99.90;;;;;;5061798;28;20199;-75
2021/12/26 00:59:32;;;;;;;21.30;19.40;;;5.40;99.90;;;;;;5061248;28;20222;-75
2021/12/26 01:01:59;;;;;;;21.67;19.53;;;5.30;99.90;;;;;;5061720;28;20195;-76
2021/12/26 01:04:26;;;;;;;21.83;19.77;;;5.30;99.90;;;;;;5058717;28;20718;-75
2021/12/26 01:06:53;;;;;;;20.53;18.73;;;5.30;99.90;;;;;;5064315;28;20200;-75
2021/12/26 01:09:24;;;;;;;20.07;18.33;;;5.30;99.90;;;;;;5060153;28;20199;-75
2021/12/26 01:11:58;;;;;;;21.37;19.47;;;5.40;99.90;;;;;;5058765;28;20215;-75
2021/12/26 01:14:32;;;;;;;20.60;18.90;;;5.40;99.90;;;;;;5063635;28;20234;-75
2021/12/26 01:17:06;;;;;;;21.33;19.53;;;5.40;99.90;;;;;;5057970;28;20210;-75
2021/12/26 01:19:43;;;;;;;24.27;21.77;;;5.40;99.90;;;;;;5063255;28;20202;-75
2021/12/26 01:22:10;;;;;;;21.43;19.50;;;5.30;99.90;;;;;;5055638;28;20198;-75
2021/12/26 01:24:39;;;;;;;21.03;19.30;;;5.30;99.90;;;;;;5061419;28;20714;-75
2021/12/26 01:27:08;;;;;;;21.60;19.70;;;5.30;99.90;;;;;;5055490;28;20195;-75
2021/12/26 01:29:36;;;;;;;22.70;20.70;;;5.30;99.90;;;;;;5063410;28;20199;-75
2021/12/26 01:32:05;;;;;;;22.10;20.20;;;5.30;99.90;;;;;;5063034;28;20250;-75
2021/12/26 01:34:51;;;;;;;21.83;19.97;;;5.40;99.90;;;;;;5060182;28;20221;-75
2021/12/26 01:37:27;;;;;;;23.27;21.17;;;5.40;99.90;;;;;;5061182;28;20224;-76
2021/12/26 01:40:18;;;;;;;22.40;20.53;;;5.30;99.90;;;;;;5056000;28;20260;-75
2021/12/26 01:43:06;;;;;;;22.93;20.90;;;5.40;99.90;;;;;;5055096;28;20651;-75
2021/12/26 01:45:54;;;;;;;23.30;21.20;;;5.40;99.90;;;;;;5063247;28;20191;-75
2021/12/26 01:48:23;;;;;;;23.87;21.53;;;5.30;99.90;;;;;;5054894;28;20290;-75
2021/12/26 01:50:52;;;;;;;24.53;22.17;;;5.30;99.90;;;;;;5059723;28;20282;-76
2021/12/26 01:53:22;;;;;;;25.40;22.83;;;5.30;99.90;;;;;;5050502;28;20242;-75
2021/12/26 01:55:50;;;;;;;23.90;21.60;;;5.30;99.90;;;;;;5059678;28;20199;-76
2021/12/26 01:58:21;;;;;;;22.90;20.93;;;5.30;99.90;;;;;;5060554;28;20195;-76
2021/12/26 02:00:51;;;;;;;24.07;21.73;;;5.30;99.90;;;;;;5053398;28;20202;-75
2021/12/26 02:03:19;;;;;;;23.63;21.43;;;5.30;99.90;;;;;;5053744;28;20226;-75
2021/12/26 02:05:46;;;;;;;24.77;22.27;;;5.30;99.90;;;;;;5058393;28;20203;-75
2021/12/26 02:08:14;;;;;;;24.67;22.27;;;5.30;99.90;;;;;;5060785;28;20774;-76
2021/12/26 02:10:43;;;;;;;24.60;22.13;;;5.30;99.90;;;;;;5057634;28;20202;-75
2021/12/26 02:13:12;;;;;;;25.33;22.77;;;5.40;99.90;;;;;;5060740;28;20257;-75
2021/12/26 02:15:41;;;;;;;25.47;22.97;;;5.40;99.90;;;;;;5057254;28;20303;-75
2021/12/26 02:18:12;;;;;;;26.13;23.50;;;5.40;99.90;;;;;;5063274;28;20294;-75
2021/12/26 02:20:55;;;;;;;30.97;24.00;;;5.40;99.90;;;;;;5058098;28;20630;-75
2021/12/26 02:23:31;;;;;;;30.97;25.13;;;5.30;99.90;;;;;;5062057;28;20211;-76
2021/12/26 02:28:48;;;;;;;26.83;24.33;;;5.30;99.90;;;;;;5064576;28;20202;-76
2021/12/26 02:31:17;;;;;;;26.33;23.77;;;5.30;99.90;;;;;;5058405;28;20211;-75
2021/12/26 02:33:44;;;;;;;26.63;24.00;;;5.20;99.90;;;;;;5057120;28;20225;-75
2021/12/26 02:36:12;;;;;;;26.40;24.00;;;5.20;99.90;;;;;;5063456;28;20219;-75
2021/12/26 02:38:39;;;;;;;27.50;24.53;;;5.10;99.90;;;;;;5055294;28;20196;-75
2021/12/26 02:41:07;;;;;;;27.00;24.00;;;5.20;99.90;;;;;;5061100;28;20202;-75
2021/12/26 02:43:36;;;;;;;27.50;24.80;;;5.20;99.90;;;;;;5057582;28;20214;-76
2021/12/26 02:46:06;;;;;;;26.17;23.60;;;5.20;99.90;;;;;;5063321;28;20195;-75
2021/12/26 02:48:34;;;;;;;27.67;24.93;;;5.20;99.90;;;;;;5050743;28;20690;-75
2021/12/26 02:51:02;;;;;;;27.93;25.10;;;5.30;99.90;;;;;;5053882;28;20246;-75
2021/12/26 02:53:31;;;;;;;27.97;24.63;;;5.20;99.90;;;;;;5056850;28;20223;-75
2021/12/26 02:56:00;;;;;;;26.00;23.50;;;5.20;99.90;;;;;;5050225;28;20198;-75
2021/12/26 02:58:28;;;;;;;24.73;22.37;;;5.20;99.90;;;;;;5058292;28;20206;-75
2021/12/26 03:00:59;;;;;;;25.10;22.80;;;5.20;99.90;;;;;;5061486;28;20617;-75
2021/12/26 03:03:26;;;;;;;26.33;23.87;;;5.30;99.90;;;;;;5050710;28;20230;-75
2021/12/26 03:06:01;;;;;;;27.57;24.77;;;5.20;99.90;;;;;;5059847;28;20202;-75
2021/12/26 03:08:28;;;;;;;27.07;24.47;;;5.20;99.90;;;;;;5067202;28;20231;-75
2021/12/26 03:10:56;;;;;;;27.83;25.20;;;5.20;99.90;;;;;;5060059;28;20206;-75
2021/12/26 03:13:24;;;;;;;27.90;25.30;;;5.20;99.90;;;;;;5058342;28;20218;-75
2021/12/26 03:15:51;;;;;;;27.43;24.73;;;5.20;99.90;;;;;;5058601;28;20240;-75
2021/12/26 03:18:18;;;;;;;27.27;24.67;;;5.20;99.90;;;;;;5060582;28;20202;-75
2021/12/26 03:20:50;;;;;;;25.60;23.13;;;5.20;99.90;;;;;;5051997;28;20203;-75
2021/12/26 03:23:21;;;;;;;28.77;25.93;;;5.20;99.90;;;;;;5052947;28;20233;-75
2021/12/26 03:25:48;;;;;;;28.17;25.20;;;5.20;99.90;;;;;;5056544;28;20277;-75
2021/12/26 03:28:18;;;;;;;25.40;23.10;;;5.20;99.90;;;;;;5056071;28;20395;-76
2021/12/26 03:30:46;;;;;;;26.47;23.83;;;5.20;99.90;;;;;;5062981;28;20208;-75
2021/12/26 03:33:17;;;;;;;25.90;23.50;;;5.20;99.90;;;;;;5059682;28;20701;-76
2021/12/26 03:35:44;;;;;;;27.10;24.40;;;5.20;99.90;;;;;;5059504;28;20652;-75
2021/12/26 03:38:13;;;;;;;26.33;23.83;;;5.20;99.90;;;;;;5051773;28;20207;-75
2021/12/26 03:41:03;;;;;;;25.77;23.43;;;5.20;99.90;;;;;;5065942;28;20210;-76
2021/12/26 03:43:32;;;;;;;26.87;24.37;;;5.20;99.90;;;;;;5054679;28;20214;-76
2021/12/26 03:46:01;;;;;;;26.07;23.53;;;5.20;99.90;;;;;;5062632;28;20683;-75
2021/12/26 03:48:29;;;;;;;26.20;23.70;;;5.20;99.90;;;;;;5053608;28;20195;-75
2021/12/26 03:50:59;;;;;;;25.90;23.33;;;5.20;99.90;;;;;;5062119;28;20222;-75
2021/12/26 03:53:26;;;;;;;25.60;23.40;;;5.20;99.90;;;;;;5065604;28;20781;-76
2021/12/26 03:55:53;;;;;;;26.50;24.00;;;5.20;99.90;;;;;;5058315;28;20201;-75
2021/12/26 03:58:21;;;;;;;25.30;22.87;;;5.10;99.90;;;;;;5042370;28;20282;-75
2021/12/26 04:00:50;;;;;;;25.07;22.73;;;5.10;99.90;;;;;;5055124;28;20668;-76
2021/12/26 04:03:21;;;;;;;25.77;23.37;;;5.20;99.90;;;;;;5053026;28;20222;-75
2021/12/26 04:06:00;;;;;;;25.47;23.03;;;5.20;99.90;;;;;;5048291;28;20264;-76
2021/12/26 04:08:30;;;;;;;24.13;22.03;;;5.20;99.90;;;;;;5054636;28;20222;-76
2021/12/26 04:10:57;;;;;;;26.13;23.73;;;5.20;99.90;;;;;;5065834;28;20290;-76
2021/12/26 04:13:24;;;;;;;24.63;22.40;;;5.20;99.90;;;;;;5060038;28;20225;-77
2021/12/26 04:15:52;;;;;;;25.17;22.87;;;5.20;99.90;;;;;;5061878;28;20672;-75
2021/12/26 04:18:19;;;;;;;25.90;23.50;;;5.20;99.90;;;;;;5061845;28;20207;-75
2021/12/26 04:20:47;;;;;;;25.60;23.20;;;5.20;99.90;;;;;;5055907;28;20286;-77
2021/12/26 04:23:15;;;;;;;23.47;21.37;;;5.20;99.90;;;;;;5062951;28;20218;-77
2021/12/26 04:25:42;;;;;;;25.07;22.67;;;5.30;99.90;;;;;;5053207;28;20203;-77
2021/12/26 04:28:11;;;;;;;24.13;21.97;;;5.20;99.90;;;;;;5065315;28;20213;-78
2021/12/26 04:30:38;;;;;;;24.83;22.53;;;5.20;99.90;;;;;;5060462;28;20195;-78
2021/12/26 04:33:06;;;;;;;23.87;21.67;;;5.20;99.90;;;;;;5056946;28;20226;-77
2021/12/26 04:35:34;;;;;;;25.17;22.83;;;5.20;99.90;;;;;;5061217;28;20741;-78
2021/12/26 04:38:01;;;;;;;25.27;22.80;;;5.20;99.90;;;;;;5065312;28;20195;-78
2021/12/26 04:40:28;;;;;;;23.80;21.63;;;5.20;99.90;;;;;;5060992;28;20203;-77
2021/12/26 04:43:12;;;;;;;23.53;21.43;;;5.20;99.90;;;;;;5062425;28;20222;-77
2021/12/26 04:45:46;;;;;;;25.50;23.20;;;5.20;99.90;;;;;;5066269;28;20211;-76
2021/12/26 04:48:33;;;;;;;25.60;23.27;;;5.20;99.90;;;;;;5066114;28;20275;-77
2021/12/26 04:51:00;;;;;;;26.37;23.77;;;5.20;99.90;;;;;;5064615;28;20675;-77
2021/12/26 04:53:27;;;;;;;25.03;22.73;;;5.20;99.90;;;;;;5061339;28;20222;-76
2021/12/26 04:55:54;;;;;;;24.70;22.20;;;5.20;99.90;;;;;;5065381;28;20203;-76
2021/12/26 04:58:21;;;;;;;25.03;22.70;;;5.20;99.90;;;;;;5061701;28;20194;-77
2021/12/26 05:00:48;;;;;;;25.17;22.77;;;5.20;99.90;;;;;;5059681;28;20201;-76
2021/12/26 05:03:15;;;;;;;25.17;22.77;;;5.20;99.90;;;;;;5062866;28;20590;-76
2021/12/26 05:05:44;;;;;;;24.20;22.00;;;5.20;99.90;;;;;;5057042;28;20591;-76
2021/12/26 05:08:12;;;;;;;24.60;22.30;;;5.20;99.90;;;;;;5061858;28;20191;-76
2021/12/26 05:10:41;;;;;;;24.63;22.27;;;5.20;99.90;;;;;;5063667;28;20729;-76
2021/12/26 05:13:09;;;;;;;24.10;21.90;;;5.20;99.90;;;;;;5058114;28;20761;-76
2021/12/26 05:15:36;;;;;;;25.33;22.97;;;5.20;99.90;;;;;;5059622;28;20202;-76
2021/12/26 05:18:04;;;;;;;24.23;22.03;;;5.30;99.90;;;;;;5057469;28;20687;-76
2021/12/26 05:20:33;;;;;;;23.27;21.17;;;5.20;99.90;;;;;;5063874;28;20191;-76
2021/12/26 05:23:01;;;;;;;25.00;22.50;;;5.20;99.90;;;;;;5065246;28;20509;-76
2021/12/26 05:25:29;;;;;;;25.27;22.80;;;5.20;99.90;;;;;;5060167;28;20257;-76
2021/12/26 05:27:57;;;;;;;24.77;22.47;;;5.20;99.90;;;;;;5057366;28;20203;-76
2021/12/26 05:30:27;;;;;;;26.03;23.43;;;5.20;99.90;;;;;;5063284;28;20204;-76
2021/12/26 05:33:16;;;;;;;25.97;23.37;;;5.30;99.90;;;;;;5058644;28;20325;-77
2021/12/26 05:35:44;;;;;;;24.77;22.37;;;5.30;99.90;;;;;;5060680;28;20207;-76
2021/12/26 05:38:13;;;;;;;23.83;21.63;;;5.20;99.90;;;;;;5067386;28;20199;-77
2021/12/26 05:40:44;;;;;;;25.03;22.70;;;5.20;99.90;;;;;;5063775;28;20206;-79
2021/12/26 05:43:11;;;;;;;24.43;22.03;;;5.20;99.90;;;;;;5056127;28;20219;-78
2021/12/26 05:45:39;;;;;;;24.00;21.80;;;5.20;99.90;;;;;;5066802;28;20698;-78
2021/12/26 05:48:14;;;;;;;24.87;22.40;;;5.20;99.90;;;;;;5052905;28;20199;-77
2021/12/26 05:50:41;;;;;;;25.40;22.90;;;5.20;99.90;;;;;;5062584;28;20191;-78
2021/12/26 05:53:29;;;;;;;25.40;22.97;;;5.20;99.90;;;;;;5072223;28;20264;-78
2021/12/26 05:55:55;;;;;;;24.47;22.33;;;5.20;99.90;;;;;;5063144;28;20203;-77
2021/12/26 05:58:25;;;;;;;25.53;23.13;;;5.20;99.90;;;;;;5060343;28;20203;-77
2021/12/26 06:00:53;;;;;;;24.63;22.30;;;5.20;99.90;;;;;;5058687;28;20202;-77
2021/12/26 06:03:20;;;;;;;26.63;24.10;;;5.20;99.90;;;;;;5059928;28;20219;-77
2021/12/26 06:05:47;;;;;;;24.60;22.40;;;5.20;99.90;;;;;;5061322;28;20633;-77
2021/12/26 06:08:14;;;;;;;23.60;21.47;;;5.20;99.90;;;;;;5051779;28;20294;-77
2021/12/26 06:10:44;;;;;;;23.80;21.70;;;5.20;99.90;;;;;;5059652;28;20200;-77
2021/12/26 06:13:11;;;;;;;25.07;22.50;;;5.10;99.90;;;;;;5058965;28;20745;-76
2021/12/26 06:15:38;;;;;;;25.83;23.10;;;5.20;99.90;;;;;;5052157;28;20278;-78
2021/12/26 06:18:05;;;;;;;25.53;23.03;;;5.20;99.90;;;;;;5054628;28;20199;-77
2021/12/26 06:21:04;;;;;;;25.83;23.20;;;5.20;99.90;;;;;;5054129;28;20218;-77
2021/12/26 06:23:50;;;;;;;25.53;23.10;;;5.20;99.90;;;;;;5060608;28;20596;-77
2021/12/26 06:26:41;;;;;;;25.60;23.10;;;5.20;99.90;;;;;;5058151;28;20218;-77
2021/12/26 06:29:29;;;;;;;24.30;21.97;;;5.20;99.90;;;;;;5034334;28;20198;-77
2021/12/26 06:32:27;;;;;;;25.83;22.93;;;5.20;99.90;;;;;;5021589;28;20195;-77
2021/12/26 06:35:30;;;;;;;25.97;23.27;;;5.10;99.90;;;;;;5002746;28;20315;-77
2021/12/26 06:38:35;;;;;;;24.27;21.97;;;5.20;99.90;;;;;;4989113;28;20283;-77
2021/12/26 06:41:20;;;;;;;24.87;22.37;;;5.20;99.90;;;;;;4987794;28;20584;-78
2021/12/26 06:44:24;;;;;;;25.13;22.63;;;5.20;99.90;;;;;;4993376;28;20302;-77
2021/12/26 06:46:54;;;;;;;25.73;23.00;;;5.20;99.90;;;;;;5053285;28;20245;-77
2021/12/26 06:49:27;;;;;;;25.77;23.27;;;5.20;99.90;;;;;;5063494;28;20203;-77
2021/12/26 06:51:54;;;;;;;26.87;24.13;;;5.20;99.90;;;;;;5070205;28;20182;-77
2021/12/26 06:54:21;;;;;;;25.07;22.57;;;5.10;99.90;;;;;;5057390;28;20223;-77
2021/12/26 06:56:49;;;;;;;25.40;22.97;;;5.10;99.90;;;;;;5060549;28;20572;-77
2021/12/26 06:59:16;;;;;;;25.50;22.97;;;5.20;99.90;;;;;;5059448;28;20601;-77
2021/12/26 07:01:45;;;;;;;25.63;22.97;;;5.10;99.90;;;;;;5058617;28;20199;-77
2021/12/26 07:04:15;;;;;;;26.07;23.57;;;5.10;99.90;;;;;;5060448;28;20269;-78
2021/12/26 07:06:42;;;;;;;25.90;23.20;;;5.10;99.90;;;;;;5055914;28;20202;-79
2021/12/26 07:09:18;;;;;;;23.87;21.67;;;5.20;99.90;;;;;;5058430;28;20194;-77
2021/12/26 07:11:45;;;;;;;25.27;22.87;;;5.20;99.90;;;;;;5060667;28;20211;-77
2021/12/26 07:14:22;;;;;;;24.63;22.17;;;5.20;99.90;;;;;;5060489;28;20325;-77
2021/12/26 07:16:51;;;;;;;26.00;23.30;;;5.20;99.90;;;;;;5060039;28;20201;-81
2021/12/26 07:19:18;;;;;;;26.27;23.80;;;5.20;99.90;;;;;;5060524;28;20194;-80
2021/12/26 07:21:45;;;;;;;25.43;22.97;;;5.20;99.90;;;;;;5055814;28;20203;-80
2021/12/26 07:24:13;;;;;;;24.93;22.53;;;5.20;99.90;;;;;;5056708;28;20223;-78
2021/12/26 07:26:40;;;;;;;24.57;22.17;;;5.20;99.90;;;;;;5066699;28;20277;-80
2021/12/26 07:29:26;;;;;;;23.97;21.67;;;5.20;99.90;;;;;;5059128;28;20203;-78
2021/12/26 07:31:55;;;;;;;24.77;22.50;;;5.10;99.90;;;;;;5055417;28;20651;-79
2021/12/26 07:34:22;;;;;;;32.60;23.70;;;5.20;99.90;;;;;;5060464;28;20306;-78
2021/12/26 07:36:49;;;;;;;24.73;22.40;;;5.20;99.90;;;;;;5067637;28;20555;-78
2021/12/26 07:39:22;;;;;;;24.00;21.80;;;5.20;99.90;;;;;;5055469;28;20195;-79
2021/12/26 07:41:49;;;;;;;24.40;22.10;;;5.20;99.90;;;;;;5067295;28;20201;-79
2021/12/26 07:44:35;;;;;;;24.30;22.00;;;5.20;99.90;;;;;;5063547;28;20789;-77
2021/12/26 07:47:32;;;;;;;25.90;23.33;;;5.20;99.90;;;;;;5052113;28;20206;-80
2021/12/26 07:50:00;;;;;;;26.10;23.43;;;5.20;99.90;;;;;;5060357;28;20221;-78
2021/12/26 07:52:54;;;;;;;25.07;22.67;;;5.20;99.90;;;;;;5046200;28;20283;-78
2021/12/26 07:55:40;;;;;;;24.20;21.90;;;5.30;99.90;;;;;;5064567;28;20229;-78
2021/12/26 07:58:36;;;;;;;23.23;21.03;;;5.40;99.90;;;;;;5023000;28;20243;-78
2021/12/26 08:01:21;;;;;;;25.20;22.73;;;5.50;99.90;;;;;;5058833;28;20206;-78
2021/12/26 08:04:10;;;;;;;26.80;24.13;;;5.50;99.90;;;;;;5057787;28;20230;-78
2021/12/26 08:07:09;;;;;;;25.50;23.10;;;5.60;99.90;;;;;;5055986;28;20206;-78
2021/12/26 08:09:37;;;;;;;25.20;22.77;;;5.60;99.90;;;;;;5065659;28;20642;-78
2021/12/26 08:12:05;;;;;;;25.57;23.13;;;5.60;99.90;;;;;;5064689;28;20573;-79
2021/12/26 08:14:32;;;;;;;25.73;23.37;;;5.60;99.90;;;;;;5058681;28;20313;-77
2021/12/26 08:16:59;;;;;;;25.47;23.07;;;5.70;99.90;;;;;;5062166;28;20585;-77
2021/12/26 08:19:27;;;;;;;26.40;23.90;;;5.70;99.90;;;;;;5058988;28;20191;-77
2021/12/26 08:21:54;;;;;;;26.00;23.50;;;5.70;99.90;;;;;;5064813;28;20191;-77
2021/12/26 08:24:22;;;;;;;17.70;15.67;;;5.70;99.90;;;;;;5062106;28;20265;-79
2021/12/26 08:26:51;;;;;;;20.70;16.47;;;5.70;99.90;;;;;;5060908;28;20575;-77
2021/12/26 08:29:20;;;;;;;24.33;17.60;;;5.70;99.90;;;;;;5060458;28;20577;-77
2021/12/26 08:31:46;;;;;;;21.93;15.17;;;5.70;99.90;;;;;;5057797;28;20682;-77
2021/12/26 08:34:19;;;;;;;20.17;16.63;;;5.70;99.90;;;;;;5068772;28;20229;-77
2021/12/26 08:36:49;;;;;;;19.50;15.50;;;5.70;99.90;;;;;;5054206;28;20314;-77
2021/12/26 08:39:16;;;;;;;20.67;14.33;;;5.70;99.90;;;;;;5062416;28;20222;-77
2021/12/26 08:41:43;;;;;;;18.90;15.97;;;5.80;99.90;;;;;;5067196;28;20199;-77
2021/12/26 08:44:16;;;;;;;23.80;20.40;;;5.80;99.90;;;;;;5063600;28;20222;-77
2021/12/26 08:46:43;;;;;;;17.67;13.00;;;5.80;99.90;;;;;;5061380;28;20624;-77
2021/12/26 08:49:11;;;;;;;15.83;13.40;;;5.80;99.90;;;;;;5059980;28;20656;-78
2021/12/26 08:51:38;;;;;;;17.10;13.07;;;5.90;99.90;;;;;;5062120;28;20198;-77
2021/12/26 08:54:06;;;;;;;20.57;14.13;;;5.90;99.90;;;;;;5064297;28;20738;-77
2021/12/26 08:56:35;;;;;;;20.93;17.67;;;6.00;99.90;;;;;;5063357;28;20194;-77
2021/12/26 08:59:02;;;;;;;18.03;15.67;;;6.00;99.90;;;;;;5061050;28;20732;-77
2021/12/26 09:01:29;;;;;;;18.37;13.13;;;6.00;99.90;;;;;;5064061;28;20199;-77
2021/12/26 09:03:56;;;;;;;17.00;15.20;;;6.00;99.90;;;;;;5071363;28;20227;-77
2021/12/26 09:06:23;;;;;;;20.03;14.67;;;6.10;99.90;;;;;;5060638;28;20589;-77
2021/12/26 09:08:51;;;;;;;18.80;14.17;;;6.10;99.90;;;;;;5062133;28;20261;-77
2021/12/26 09:11:19;;;;;;;17.77;15.10;;;6.20;99.90;;;;;;5066499;28;20203;-77
2021/12/26 09:13:47;;;;;;;15.50;12.37;;;6.20;99.90;;;;;;5060113;28;20215;-77
2021/12/26 09:16:14;;;;;;;21.30;16.53;;;6.20;99.90;;;;;;5061849;28;20227;-77
2021/12/26 09:18:41;;;;;;;17.87;15.97;;;6.20;99.90;;;;;;5064188;28;20199;-77
2021/12/26 09:21:08;;;;;;;20.27;14.70;;;6.30;99.90;;;;;;5066668;28;20207;-77
2021/12/26 09:23:36;;;;;;;16.67;14.30;;;6.30;99.90;;;;;;5062332;28;20219;-77
2021/12/26 09:26:03;;;;;;;16.23;12.47;;;6.40;99.90;;;;;;5064379;28;20569;-77
2021/12/26 09:28:36;;;;;;;15.40;12.07;;;6.40;99.90;;;;;;5061529;28;20718;-77
2021/12/26 09:31:03;;;;;;;20.13;17.97;;;6.40;99.90;;;;;;5068929;28;20198;-78
2021/12/26 09:33:30;;;;;;;18.00;14.70;;;6.40;99.90;;;;;;5060330;28;20237;-78
2021/12/26 09:35:57;;;;;;;19.07;13.97;;;6.40;99.90;;;;;;5067301;28;20219;-77
2021/12/26 09:38:25;;;;;;;17.53;15.27;;;6.50;99.90;;;;;;5061313;28;20578;-77
2021/12/26 09:40:51;;;;;;;17.87;13.03;;;6.50;99.90;;;;;;5056519;28;20199;-78
2021/12/26 09:43:18;;;;;;;16.17;11.23;;;6.60;99.90;;;;;;5059489;28;20230;-77
2021/12/26 09:45:47;;;;;;;15.07;11.40;;;6.60;99.90;;;;;;5053805;28;20629;-78
2021/12/26 09:48:13;;;;;;;20.77;18.67;;;6.70;99.90;;;;;;5056163;28;20204;-78
2021/12/26 09:50:40;;;;;;;18.70;16.70;;;6.80;99.90;;;;;;5054745;28;20661;-82
2021/12/26 09:53:07;;;;;;;16.90;12.90;;;6.80;99.90;;;;;;5061146;28;20202;-77
2021/12/26 09:55:34;;;;;;;17.20;12.80;;;6.80;99.90;;;;;;5055388;28;20208;-79
2021/12/26 09:58:01;;;;;;;15.53;11.87;;;6.90;99.90;;;;;;5056409;28;20197;-79
2021/12/26 10:00:32;;;;;;;15.03;12.23;;;7.00;99.90;;;;;;5051745;28;20201;-79
2021/12/26 10:03:17;;;;;;;16.87;12.57;;;7.00;99.90;;;;;;5053716;28;20225;-79
2021/12/26 10:06:03;;;;;;;15.73;11.13;;;7.00;99.90;;;;;;5056404;28;20707;-78
2021/12/26 10:08:33;;;;;;;15.17;12.03;;;7.20;99.90;;;;;;5053062;28;20194;-78
2021/12/26 10:11:13;;;;;;;17.53;11.63;;;7.30;99.90;;;;;;5054696;28;20211;-78
2021/12/26 10:13:43;;;;;;;14.50;11.63;;;7.30;99.90;;;;;;5057576;28;20219;-78
2021/12/26 10:16:21;;;;;;;21.93;19.87;;;7.30;99.90;;;;;;5072883;22;20231;-81
2021/12/26 10:19:01;;;;;;;15.73;12.63;;;7.30;99.90;;;;;;5037908;28;20190;-83
2021/12/26 10:21:44;;;;;;;14.70;11.47;;;7.30;99.90;;;;;;5039425;28;20202;-81
2021/12/26 10:24:48;;;;;;;15.00;11.97;;;7.40;99.90;;;;;;5040514;28;20206;-81
2021/12/26 10:31:21;;;;;;;14.10;11.17;;;7.70;99.90;;;;;;5023545;28;20293;-82
2021/12/26 10:34:08;;;;;;;14.60;11.37;;;7.70;99.90;;;;;;4991369;28;20531;-82
2021/12/26 10:36:55;;;;;;;14.50;10.83;;;7.70;99.90;;;;;;5041983;28;20209;-82
2021/12/26 10:39:36;;;;;;;14.43;10.67;;;7.80;99.90;;;;;;5038436;28;20227;-81
2021/12/26 10:42:06;;;;;;;13.90;10.73;;;8.00;99.90;;;;;;5037982;28;20203;-80
2021/12/26 10:44:37;;;;;;;14.20;10.47;;;8.00;99.90;;;;;;5032253;28;20195;-82
2021/12/26 10:47:10;;;;;;;14.03;10.63;;;8.00;99.90;;;;;;5027281;28;20231;-82
2021/12/26 10:50:02;;;;;;;12.07;10.50;;;7.90;99.90;;;;;;5031362;28;20201;-82
2021/12/26 10:53:06;;;;;;;12.67;10.13;;;7.90;99.90;;;;;;5033737;28;20632;-82
2021/12/26 10:59:31;;;;;;;15.07;11.73;;;8.20;99.90;;;;;;5031465;28;20203;-80
2021/12/26 11:02:04;;;;;;;15.43;11.50;;;8.20;99.90;;;;;;5035948;28;20230;-81
2021/12/26 11:04:39;;;;;;;16.33;12.53;;;8.30;99.90;;;;;;5034639;28;20200;-82
2021/12/26 11:07:17;;;;;;;16.47;12.50;;;8.20;99.90;;;;;;5035056;28;20649;-79
2021/12/26 11:10:06;;;;;;;17.07;12.80;;;8.30;99.90;;;;;;5040613;28;20224;-82
2021/12/26 11:12:46;;;;;;;14.93;12.50;;;8.20;99.90;;;;;;5038698;28;20265;-82
2021/12/26 11:15:15;;;;;;;17.00;13.40;;;8.30;99.90;;;;;;5037599;28;20220;-81
2021/12/26 11:17:45;;;;;;;15.37;12.20;;;8.40;99.90;;;;;;5042470;28;20626;-83
2021/12/26 11:20:27;;;;;;;14.23;12.33;;;8.50;99.90;;;;;;5039123;28;20213;-86
2021/12/26 11:22:56;;;;;;;14.90;12.07;;;8.40;99.90;;;;;;5033007;28;20235;-84
2021/12/26 11:25:23;;;;;;;15.80;13.00;;;8.40;99.90;;;;;;5035951;28;20204;-84
2021/12/26 11:27:51;;;;;;;14.23;11.83;;;8.50;99.90;;;;;;5033564;28;20204;-79
2021/12/26 11:30:18;;;;;;;16.30;12.43;;;8.50;99.90;;;;;;5041201;28;20202;-84
2021/12/26 11:32:47;;;;;;;15.87;11.67;;;8.50;99.90;;;;;;5039624;28;20196;-81
2021/12/26 11:35:14;;;;;;;15.50;10.90;;;8.50;99.90;;;;;;5043592;28;20218;-79
2021/12/26 11:37:42;;;;;;;15.07;12.13;;;8.60;99.90;;;;;;5041487;28;20626;-81
2021/12/26 11:40:31;;;;;;;15.13;11.73;;;8.70;99.90;;;;;;5025270;28;20196;-80
2021/12/26 11:44:02;;;;;;;11.80;10.20;;;8.80;99.90;;;;;;5000924;28;20193;-80
2021/12/26 11:47:09;;;;;;;14.93;12.13;;;8.70;99.90;;;;;;5000466;28;20310;-83
2021/12/26 11:50:18;;;;;;;14.73;11.50;;;8.60;99.90;;;;;;5015870;28;20204;-84
2021/12/26 11:53:03;;;;;;;13.77;10.77;;;8.50;99.90;;;;;;5032869;28;20594;-80
2021/12/26 11:56:06;;;;;;;16.30;14.80;;;8.70;99.90;;;;;;5028890;28;20597;-81
2021/12/26 11:58:50;;;;;;;11.17;9.47;;;8.60;99.90;;;;;;5022258;28;20197;-79
2021/12/26 12:01:20;;;;;;;9.87;8.07;;;8.60;99.90;;;;;;5039585;28;20199;-82
2021/12/26 12:03:49;;;;;;;11.70;9.07;;;8.60;99.90;;;;;;5031987;28;20629;-82
2021/12/26 12:06:26;;;;;;;10.90;8.40;;;8.60;99.90;;;;;;5036081;28;20279;-79
2021/12/26 12:08:55;;;;;;;17.30;15.80;;;8.70;99.90;;;;;;5037803;28;20672;-81
2021/12/26 12:11:23;;;;;;;16.73;15.43;;;8.70;99.90;;;;;;5035208;28;20227;-82
2021/12/26 12:13:53;;;;;;;13.47;12.17;;;8.70;99.90;;;;;;5026538;28;20204;-80
2021/12/26 12:16:34;;;;;;;17.90;16.50;;;8.70;99.90;;;;;;5024961;28;20759;-79
2021/12/26 12:19:05;;;;;;;10.53;9.20;;;8.60;99.90;;;;;;5024232;28;20225;-82
2021/12/26 12:21:36;;;;;;;18.67;17.17;;;8.60;99.90;;;;;;5038347;28;20207;-81
2021/12/26 12:24:07;;;;;;;10.40;8.50;;;8.60;99.90;;;;;;5038034;28;20200;-81
2021/12/26 12:26:53;;;;;;;9.27;8.37;;;8.60;99.90;;;;;;5051992;28;20269;-82
2021/12/26 12:29:47;;;;;;;10.47;8.60;;;8.60;99.90;;;;;;5043822;28;20203;-80
2021/12/26 12:35:05;;;;;;;9.57;8.30;;;8.70;99.90;;;;;;5058235;28;20196;-82
2021/12/26 12:37:37;;;;;;;10.87;8.30;;;8.60;99.90;;;;;;5048104;28;20219;-82
2021/12/26 12:40:20;;;;;;;10.33;8.70;;;8.70;99.90;;;;;;5043405;28;20641;-82
2021/12/26 12:43:04;;;;;;;14.37;13.10;;;8.70;99.90;;;;;;5048903;28;20201;-79
2021/12/26 12:45:52;;;;;;;18.23;16.83;;;8.70;99.90;;;;;;5034517;28;20300;-78
2021/12/26 12:48:23;;;;;;;10.17;8.20;;;8.60;99.90;;;;;;5041294;28;20210;-78
2021/12/26 12:50:53;;;;;;;10.10;8.00;;;8.60;99.90;;;;;;5040961;28;20271;-83
2021/12/26 12:53:42;;;;;;;9.67;8.40;;;8.70;99.90;;;;;;5038394;28;20234;-81
2021/12/26 12:56:12;;;;;;;10.30;7.97;;;8.70;99.90;;;;;;5038638;28;20220;-80
2021/12/26 12:58:51;;;;;;;11.60;10.47;;;8.90;99.90;;;;;;5046421;28;20629;-81
2021/12/26 13:01:59;;;;;;;9.37;7.87;;;9.00;99.90;;;;;;5050701;28;20271;-80
2021/12/26 13:04:51;;;;;;;10.33;9.23;;;9.00;99.90;;;;;;5049491;28;20192;-78
2021/12/26 13:07:25;;;;;;;15.13;13.93;;;9.10;99.90;;;;;;5047796;28;20216;-82
2021/12/26 13:09:59;;;;;;;17.17;15.93;;;9.10;99.90;;;;;;5041874;28;20211;-81
2021/12/26 13:12:27;;;;;;;11.47;10.37;;;9.00;99.90;;;;;;5046442;28;20215;-75
2021/12/26 13:14:57;;;;;;;8.80;7.50;;;8.90;99.90;;;;;;5047759;28;20206;-76
2021/12/26 13:17:30;;;;;;;9.17;7.70;;;8.90;99.90;;;;;;5048726;28;20233;-78
2021/12/26 13:19:59;;;;;;;9.77;8.67;;;9.00;99.90;;;;;;5037056;28;20196;-77